sensor_id;sensor_type;location;lat;lon;timestamp;pressure;altitude;pressure_sealevel;temperature;humidity
19210;BME280;9738;51.654;14.238;2022-09-06T00:00:22;101100.19;;;16.01;70.68
19210;BME280;9738;51.654;14.238;2022-09-06T00:02:48;101102.22;;;15.99;70.28
19210;BME280;9738;51.654;14.238;2022-09-06T00:05:14;101107.25;;;16.02;70.75
19210;BME280;9738;51.654;14.238;2022-09-06T00:07:40;101102.72;;;16.02;69.83
19210;BME280;9738;51.654;14.238;2022-09-06T00:10:06;101102.72;;;16.02;69.86
19210;BME280;9738;51.654;14.238;2022-09-06T00:12:33;101100.72;;;16.04;70.05
19210;BME280;9738;51.654;14.238;2022-09-06T00:14:59;101102.72;;;16.02;68.21
19210;BME280;9738;51.654;14.238;2022-09-06T00:17:25;101104.56;;;16.02;67.45
19210;BME280;9738;51.654;14.238;2022-09-06T00:19:51;101100.72;;;16.04;68.96
19210;BME280;9738;51.654;14.238;2022-09-06T00:22:17;101096.16;;;16.05;66.83
19210;BME280;9738;51.654;14.238;2022-09-06T00:24:42;101097.00;;;16.05;66.59
19210;BME280;9738;51.654;14.238;2022-09-06T00:27:09;101093.94;;;16.08;66.30
19210;BME280;9738;51.654;14.238;2022-09-06T00:29:35;101097.00;;;16.05;65.26
19210;BME280;9738;51.654;14.238;2022-09-06T00:32:00;101096.16;;;16.05;66.26
19210;BME280;9738;51.654;14.238;2022-09-06T00:34:27;101088.91;;;16.05;64.82
19210;BME280;9738;51.654;14.238;2022-09-06T00:36:53;101092.63;;;16.04;64.89
19210;BME280;9738;51.654;14.238;2022-09-06T00:39:19;101089.41;;;16.01;63.83
19210;BME280;9738;51.654;14.238;2022-09-06T00:41:45;101086.91;;;15.99;63.90
19210;BME280;9738;51.654;14.238;2022-09-06T00:44:11;101076.63;;;15.94;63.71
19210;BME280;9738;51.654;14.238;2022-09-06T00:46:38;101079.69;;;15.91;64.50
19210;BME280;9738;51.654;14.238;2022-09-06T00:49:14;101084.38;;;15.89;64.25
19210;BME280;9738;51.654;14.238;2022-09-06T00:51:46;101076.97;;;15.83;63.49
19210;BME280;9738;51.654;14.238;2022-09-06T00:54:12;101077.31;;;15.80;62.93
19210;BME280;9738;51.654;14.238;2022-09-06T00:56:41;101088.78;;;15.74;63.59
19210;BME280;9738;51.654;14.238;2022-09-06T00:59:08;101082.03;;;15.70;63.77
19210;BME280;9738;51.654;14.238;2022-09-06T01:01:34;101083.53;;;15.64;63.72
19210;BME280;9738;51.654;14.238;2022-09-06T01:04:01;101093.78;;;15.61;63.15
19210;BME280;9738;51.654;14.238;2022-09-06T01:06:46;101090.75;;;15.56;62.74
19210;BME280;9738;51.654;14.238;2022-09-06T01:09:28;101087.41;;;15.54;62.66
19210;BME280;9738;51.654;14.238;2022-09-06T01:17:35;101083.00;;;15.45;62.94
19210;BME280;9738;51.654;14.238;2022-09-06T01:20:36;101082.50;;;15.41;63.22
19210;BME280;9738;51.654;14.238;2022-09-06T01:28:57;101083.00;;;15.28;63.12
19210;BME280;9738;51.654;14.238;2022-09-06T01:31:30;101078.78;;;15.26;63.45
19210;BME280;9738;51.654;14.238;2022-09-06T01:36:34;101074.59;;;15.23;64.34
19210;BME280;9738;51.654;14.238;2022-09-06T01:39:01;101077.59;;;15.20;64.30
19210;BME280;9738;51.654;14.238;2022-09-06T01:41:28;101080.78;;;15.16;64.75
19210;BME280;9738;51.654;14.238;2022-09-06T01:43:55;101079.59;;;15.10;64.74
19210;BME280;9738;51.654;14.238;2022-09-06T01:46:44;101086.47;;;15.04;64.66
19210;BME280;9738;51.654;14.238;2022-09-06T01:52:18;101093.69;;;14.96;66.30
19210;BME280;9738;51.654;14.238;2022-09-06T01:55:06;101091.16;;;14.94;65.84
19210;BME280;9738;51.654;14.238;2022-09-06T01:58:10;101096.03;;;14.91;66.53
19210;BME280;9738;51.654;14.238;2022-09-06T02:00:46;101085.09;;;14.84;66.40
19210;BME280;9738;51.654;14.238;2022-09-06T02:03:41;101088.78;;;14.83;66.88
19210;BME280;9738;51.654;14.238;2022-09-06T02:06:17;101086.25;;;14.81;67.01
19210;BME280;9738;51.654;14.238;2022-09-06T02:08:48;101092.13;;;14.77;66.88
19210;BME280;9738;51.654;14.238;2022-09-06T02:11:16;101093.44;;;14.73;66.93
19210;BME280;9738;51.654;14.238;2022-09-06T02:13:51;101091.75;;;14.72;66.96
19210;BME280;9738;51.654;14.238;2022-09-06T02:16:21;101089.25;;;14.70;67.09
19210;BME280;9738;51.654;14.238;2022-09-06T02:18:53;101092.78;;;14.71;67.67
19210;BME280;9738;51.654;14.238;2022-09-06T02:21:27;101099.47;;;14.67;67.19
19210;BME280;9738;51.654;14.238;2022-09-06T02:23:56;101100.78;;;14.63;66.61
19210;BME280;9738;51.654;14.238;2022-09-06T02:26:27;101103.81;;;14.59;67.55
19210;BME280;9738;51.654;14.238;2022-09-06T02:28:54;101096.22;;;14.55;66.89
19210;BME280;9738;51.654;14.238;2022-09-06T02:31:54;101095.38;;;14.54;66.39
19210;BME280;9738;51.654;14.238;2022-09-06T02:34:21;101094.38;;;14.55;66.43
19210;BME280;9738;51.654;14.238;2022-09-06T02:36:47;101098.06;;;14.54;66.18
19210;BME280;9738;51.654;14.238;2022-09-06T02:39:13;101090.00;;;14.54;65.91
19210;BME280;9738;51.654;14.238;2022-09-06T02:41:42;101092.69;;;14.54;65.84
19210;BME280;9738;51.654;14.238;2022-09-06T02:44:08;101085.63;;;14.53;65.43
19210;BME280;9738;51.654;14.238;2022-09-06T02:46:34;101086.84;;;14.59;65.61
19210;BME280;9738;51.654;14.238;2022-09-06T02:49:00;101089.53;;;14.59;65.51
19210;BME280;9738;51.654;14.238;2022-09-06T02:51:26;101082.97;;;14.62;65.85
19210;BME280;9738;51.654;14.238;2022-09-06T02:53:52;101079.13;;;14.64;65.88
19210;BME280;9738;51.654;14.238;2022-09-06T02:56:18;101081.00;;;14.64;65.81
19210;BME280;9738;51.654;14.238;2022-09-06T02:58:44;101075.63;;;14.64;65.80
19210;BME280;9738;51.654;14.238;2022-09-06T03:01:09;101071.56;;;14.59;65.98
19210;BME280;9738;51.654;14.238;2022-09-06T03:03:36;101075.09;;;14.60;65.77
19210;BME280;9738;51.654;14.238;2022-09-06T03:06:01;101071.84;;;14.56;65.55
19210;BME280;9738;51.654;14.238;2022-09-06T03:08:27;101071.72;;;14.58;66.06
19210;BME280;9738;51.654;14.238;2022-09-06T03:10:59;101074.72;;;14.55;66.32
19210;BME280;9738;51.654;14.238;2022-09-06T03:13:25;101072.88;;;14.55;66.90
19210;BME280;9738;51.654;14.238;2022-09-06T03:15:55;101067.84;;;14.52;66.78
19210;BME280;9738;51.654;14.238;2022-09-06T03:18:24;101052.00;;;14.49;67.52
19210;BME280;9738;51.654;14.238;2022-09-06T03:20:51;101045.25;;;14.45;67.27
19210;BME280;9738;51.654;14.238;2022-09-06T03:23:17;101047.41;;;14.42;67.22
19210;BME280;9738;51.654;14.238;2022-09-06T03:25:44;101039.81;;;14.37;67.29
19210;BME280;9738;51.654;14.238;2022-09-06T03:28:10;101045.53;;;14.34;67.24
19210;BME280;9738;51.654;14.238;2022-09-06T03:30:36;101047.84;;;14.29;68.04
19210;BME280;9738;51.654;14.238;2022-09-06T03:33:02;101043.66;;;14.26;68.13
19210;BME280;9738;51.654;14.238;2022-09-06T03:35:28;101043.97;;;14.23;68.13
19210;BME280;9738;51.654;14.238;2022-09-06T03:37:53;101045.44;;;14.18;68.12
19210;BME280;9738;51.654;14.238;2022-09-06T03:40:20;101045.78;;;14.15;68.59
19210;BME280;9738;51.654;14.238;2022-09-06T03:42:45;101050.78;;;14.10;68.55
19210;BME280;9738;51.654;14.238;2022-09-06T03:45:11;101050.78;;;14.10;68.67
19210;BME280;9738;51.654;14.238;2022-09-06T03:47:38;101051.78;;;14.09;68.56
19210;BME280;9738;51.654;14.238;2022-09-06T03:50:04;101048.25;;;14.08;69.12
19210;BME280;9738;51.654;14.238;2022-09-06T03:52:31;101047.72;;;14.04;69.37
19210;BME280;9738;51.654;14.238;2022-09-06T03:54:57;101045.38;;;14.01;69.43
19210;BME280;9738;51.654;14.238;2022-09-06T03:57:23;101043.69;;;14.00;69.66
19210;BME280;9738;51.654;14.238;2022-09-06T03:59:49;101047.69;;;13.96;70.33
19210;BME280;9738;51.654;14.238;2022-09-06T04:02:15;101055.06;;;13.94;70.92
19210;BME280;9738;51.654;14.238;2022-09-06T04:04:41;101050.00;;;13.91;70.69
19210;BME280;9738;51.654;14.238;2022-09-06T04:07:06;101050.31;;;13.88;70.90
19210;BME280;9738;51.654;14.238;2022-09-06T04:09:32;101041.72;;;13.85;70.95
19210;BME280;9738;51.654;14.238;2022-09-06T04:11:59;101042.91;;;13.82;71.82
19210;BME280;9738;51.654;14.238;2022-09-06T04:14:24;101036.81;;;13.80;72.82
19210;BME280;9738;51.654;14.238;2022-09-06T04:16:51;101040.50;;;13.79;73.43
19210;BME280;9738;51.654;14.238;2022-09-06T04:19:17;101037.16;;;13.77;72.92
19210;BME280;9738;51.654;14.238;2022-09-06T04:21:42;101034.63;;;13.75;73.21
19210;BME280;9738;51.654;14.238;2022-09-06T04:24:09;101029.72;;;13.71;72.62
19210;BME280;9738;51.654;14.238;2022-09-06T04:26:34;101031.34;;;13.64;72.22
19210;BME280;9738;51.654;14.238;2022-09-06T04:29:00;101030.69;;;13.62;72.97
19210;BME280;9738;51.654;14.238;2022-09-06T04:31:27;101029.69;;;13.63;73.16
19210;BME280;9738;51.654;14.238;2022-09-06T04:33:52;101025.66;;;13.67;73.67
19210;BME280;9738;51.654;14.238;2022-09-06T04:36:18;101028.88;;;13.70;73.57
19210;BME280;9738;51.654;14.238;2022-09-06T04:38:45;101027.72;;;13.73;73.35
19210;BME280;9738;51.654;14.238;2022-09-06T04:41:13;101028.09;;;13.78;72.61
19210;BME280;9738;51.654;14.238;2022-09-06T04:43:40;101021.25;;;13.84;72.52
19210;BME280;9738;51.654;14.238;2022-09-06T04:48:43;101026.56;;;14.01;73.06
19210;BME280;9738;51.654;14.238;2022-09-06T04:51:09;101034.19;;;14.14;71.28
19210;BME280;9738;51.654;14.238;2022-09-06T04:53:35;101039.78;;;14.21;71.76
19210;BME280;9738;51.654;14.238;2022-09-06T04:56:01;101038.13;;;14.28;70.64
19210;BME280;9738;51.654;14.238;2022-09-06T04:58:27;101035.47;;;14.36;70.46
19210;BME280;9738;51.654;14.238;2022-09-06T05:00:53;101037.50;;;14.42;70.37
19210;BME280;9738;51.654;14.238;2022-09-06T05:03:19;101034.19;;;14.48;71.67
19210;BME280;9738;51.654;14.238;2022-09-06T05:05:45;101037.09;;;14.55;70.49
19210;BME280;9738;51.654;14.238;2022-09-06T05:08:11;101040.63;;;14.55;69.02
19210;BME280;9738;51.654;14.238;2022-09-06T05:10:37;101031.53;;;14.56;69.23
19210;BME280;9738;51.654;14.238;2022-09-06T05:13:03;101034.94;;;14.58;69.14
19210;BME280;9738;51.654;14.238;2022-09-06T05:15:29;101036.44;;;14.61;70.38
19210;BME280;9738;51.654;14.238;2022-09-06T05:18:02;101042.16;;;14.66;71.03
19210;BME280;9738;51.654;14.238;2022-09-06T05:20:30;101050.75;;;14.70;70.93
19210;BME280;9738;51.654;14.238;2022-09-06T05:22:55;101046.22;;;14.70;70.22
19210;BME280;9738;51.654;14.238;2022-09-06T05:25:21;101044.03;;;14.74;71.50
19210;BME280;9738;51.654;14.238;2022-09-06T05:27:48;101044.22;;;14.72;70.53
19210;BME280;9738;51.654;14.238;2022-09-06T05:30:14;101040.34;;;14.75;71.34
19210;BME280;9738;51.654;14.238;2022-09-06T05:32:40;101041.34;;;14.74;70.45
19210;BME280;9738;51.654;14.238;2022-09-06T05:35:06;101038.50;;;14.75;71.30
19210;BME280;9738;51.654;14.238;2022-09-06T05:37:32;101042.88;;;14.76;70.61
19210;BME280;9738;51.654;14.238;2022-09-06T05:39:58;101050.59;;;14.79;70.71
19210;BME280;9738;51.654;14.238;2022-09-06T05:42:25;101052.81;;;14.84;71.29
19210;BME280;9738;51.654;14.238;2022-09-06T05:44:50;101045.44;;;14.94;71.50
19210;BME280;9738;51.654;14.238;2022-09-06T05:47:16;101042.41;;;14.97;70.17
19210;BME280;9738;51.654;14.238;2022-09-06T05:49:43;101041.06;;;15.01;70.32
19210;BME280;9738;51.654;14.238;2022-09-06T05:52:10;101043.09;;;15.07;70.96
19210;BME280;9738;51.654;14.238;2022-09-06T05:54:36;101047.16;;;15.11;71.15
19210;BME280;9738;51.654;14.238;2022-09-06T05:57:02;101043.13;;;15.16;69.99
19210;BME280;9738;51.654;14.238;2022-09-06T05:59:28;101032.72;;;15.21;71.61
19210;BME280;9738;51.654;14.238;2022-09-06T06:01:54;101032.38;;;15.24;73.52
19210;BME280;9738;51.654;14.238;2022-09-06T06:04:21;101035.91;;;15.24;72.04
19210;BME280;9738;51.654;14.238;2022-09-06T06:06:47;101027.66;;;15.26;72.53
19210;BME280;9738;51.654;14.238;2022-09-06T06:09:14;101037.41;;;15.27;71.72
19210;BME280;9738;51.654;14.238;2022-09-06T06:11:40;101034.03;;;15.25;71.69
19210;BME280;9738;51.654;14.238;2022-09-06T06:14:07;101038.59;;;15.24;72.15
19210;BME280;9738;51.654;14.238;2022-09-06T06:16:33;101039.09;;;15.28;71.61
19210;BME280;9738;51.654;14.238;2022-09-06T06:18:59;101039.94;;;15.28;71.53
19210;BME280;9738;51.654;14.238;2022-09-06T06:21:27;101035.22;;;15.30;72.55
19210;BME280;9738;51.654;14.238;2022-09-06T06:23:55;101032.03;;;15.35;72.51
19210;BME280;9738;51.654;14.238;2022-09-06T06:26:22;101031.19;;;15.43;72.51
19210;BME280;9738;51.654;14.238;2022-09-06T06:28:48;101028.31;;;15.52;71.38
19210;BME280;9738;51.654;14.238;2022-09-06T06:31:14;101023.63;;;15.62;70.20
19210;BME280;9738;51.654;14.238;2022-09-06T06:33:41;101029.00;;;15.71;70.09
19210;BME280;9738;51.654;14.238;2022-09-06T06:36:21;101017.22;;;15.80;70.47
19210;BME280;9738;51.654;14.238;2022-09-06T06:38:50;101021.25;;;15.92;70.80
19210;BME280;9738;51.654;14.238;2022-09-06T06:41:18;101018.88;;;15.97;70.46
19210;BME280;9738;51.654;14.238;2022-09-06T06:43:45;101015.31;;;16.05;71.81
19210;BME280;9738;51.654;14.238;2022-09-06T06:46:14;101008.03;;;16.13;72.63
19210;BME280;9738;51.654;14.238;2022-09-06T06:48:41;100995.38;;;16.22;73.54
19210;BME280;9738;51.654;14.238;2022-09-06T06:51:10;100992.66;;;16.30;71.80
19210;BME280;9738;51.654;14.238;2022-09-06T06:53:36;101003.22;;;16.40;72.42
19210;BME280;9738;51.654;14.238;2022-09-06T06:56:17;100998.09;;;16.53;74.73
19210;BME280;9738;51.654;14.238;2022-09-06T06:58:45;101004.78;;;16.65;74.26
19210;BME280;9738;51.654;14.238;2022-09-06T07:01:11;101008.13;;;16.75;74.56
19210;BME280;9738;51.654;14.238;2022-09-06T07:03:38;101005.03;;;16.87;73.64
19210;BME280;9738;51.654;14.238;2022-09-06T07:06:04;101004.78;;;16.96;70.82
19210;BME280;9738;51.654;14.238;2022-09-06T07:08:31;101001.19;;;17.04;71.33
19210;BME280;9738;51.654;14.238;2022-09-06T07:10:57;100993.88;;;17.13;71.70
19210;BME280;9738;51.654;14.238;2022-09-06T07:13:23;101011.88;;;17.20;71.29
19210;BME280;9738;51.654;14.238;2022-09-06T07:15:49;101004.53;;;17.29;70.67
19210;BME280;9738;51.654;14.238;2022-09-06T07:18:16;101013.78;;;17.35;71.38
19210;BME280;9738;51.654;14.238;2022-09-06T07:20:43;101016.41;;;17.43;71.55
19210;BME280;9738;51.654;14.238;2022-09-06T07:23:09;101007.75;;;17.47;68.86
19210;BME280;9738;51.654;14.238;2022-09-06T07:25:35;101022.06;;;17.56;71.55
19210;BME280;9738;51.654;14.238;2022-09-06T07:28:04;101027.19;;;17.66;68.60
19210;BME280;9738;51.654;14.238;2022-09-06T07:30:34;101021.72;;;17.74;70.90
19210;BME280;9738;51.654;14.238;2022-09-06T07:33:03;101017.19;;;17.89;68.95
19210;BME280;9738;51.654;14.238;2022-09-06T07:35:32;101016.84;;;18.07;70.32
19210;BME280;9738;51.654;14.238;2022-09-06T07:37:59;101016.28;;;18.26;67.69
19210;BME280;9738;51.654;14.238;2022-09-06T07:40:28;101022.78;;;18.47;67.92
19210;BME280;9738;51.654;14.238;2022-09-06T07:43:00;101019.47;;;18.66;66.52
19210;BME280;9738;51.654;14.238;2022-09-06T07:45:26;101016.69;;;18.74;65.41
19210;BME280;9738;51.654;14.238;2022-09-06T07:47:55;101019.66;;;18.79;66.82
19210;BME280;9738;51.654;14.238;2022-09-06T07:50:26;101027.56;;;18.81;63.91
19210;BME280;9738;51.654;14.238;2022-09-06T07:52:52;101014.50;;;18.84;66.86
19210;BME280;9738;51.654;14.238;2022-09-06T07:55:18;101015.94;;;19.02;67.06
19210;BME280;9738;51.654;14.238;2022-09-06T07:57:44;101019.81;;;19.14;65.24
19210;BME280;9738;51.654;14.238;2022-09-06T08:00:11;101018.66;;;19.23;64.43
19210;BME280;9738;51.654;14.238;2022-09-06T08:02:37;101018.88;;;19.22;63.14
19210;BME280;9738;51.654;14.238;2022-09-06T08:05:03;101024.63;;;19.40;65.79
19210;BME280;9738;51.654;14.238;2022-09-06T08:07:29;101020.44;;;19.59;64.13
19210;BME280;9738;51.654;14.238;2022-09-06T08:09:55;101015.78;;;19.74;65.88
19210;BME280;9738;51.654;14.238;2022-09-06T08:12:21;101017.16;;;19.91;65.23
19210;BME280;9738;51.654;14.238;2022-09-06T08:14:47;101005.78;;;20.09;64.19
19210;BME280;9738;51.654;14.238;2022-09-06T08:17:13;101013.00;;;20.30;65.75
19210;BME280;9738;51.654;14.238;2022-09-06T08:19:38;101015.13;;;20.41;62.15
19210;BME280;9738;51.654;14.238;2022-09-06T08:22:05;101007.66;;;20.43;60.81
19210;BME280;9738;51.654;14.238;2022-09-06T08:24:30;101015.97;;;20.42;61.36
19210;BME280;9738;51.654;14.238;2022-09-06T08:27:00;101011.63;;;20.47;62.29
19210;BME280;9738;51.654;14.238;2022-09-06T08:29:27;101015.03;;;20.56;60.30
19210;BME280;9738;51.654;14.238;2022-09-06T08:31:52;101006.50;;;20.66;57.90
19210;BME280;9738;51.654;14.238;2022-09-06T08:34:18;101008.81;;;20.69;62.21
19210;BME280;9738;51.654;14.238;2022-09-06T08:36:44;101006.13;;;20.75;60.59
19210;BME280;9738;51.654;14.238;2022-09-06T08:39:10;101008.84;;;20.82;59.72
19210;BME280;9738;51.654;14.238;2022-09-06T08:41:55;101006.38;;;20.87;59.58
19210;BME280;9738;51.654;14.238;2022-09-06T08:44:26;101009.09;;;20.94;59.42
19210;BME280;9738;51.654;14.238;2022-09-06T08:46:59;101009.53;;;21.04;60.60
19210;BME280;9738;51.654;14.238;2022-09-06T08:49:30;101001.38;;;21.11;63.73
19210;BME280;9738;51.654;14.238;2022-09-06T08:52:24;101002.00;;;20.99;57.66
19210;BME280;9738;51.654;14.238;2022-09-06T08:55:05;101008.44;;;20.92;60.24
19210;BME280;9738;51.654;14.238;2022-09-06T09:00:47;101003.63;;;20.81;59.56
19210;BME280;9738;51.654;14.238;2022-09-06T09:03:17;100997.34;;;20.80;61.14
19210;BME280;9738;51.654;14.238;2022-09-06T09:05:47;100999.84;;;20.75;62.08
19210;BME280;9738;51.654;14.238;2022-09-06T09:08:22;100997.53;;;20.72;62.51
19210;BME280;9738;51.654;14.238;2022-09-06T09:13:50;100989.63;;;20.77;60.82
19210;BME280;9738;51.654;14.238;2022-09-06T09:16:18;100986.47;;;20.80;60.69
19210;BME280;9738;51.654;14.238;2022-09-06T09:18:48;100989.44;;;20.85;62.11
19210;BME280;9738;51.654;14.238;2022-09-06T09:21:18;100975.25;;;20.90;63.07
19210;BME280;9738;51.654;14.238;2022-09-06T09:23:50;100967.94;;;20.90;63.01
19210;BME280;9738;51.654;14.238;2022-09-06T09:26:16;100965.66;;;20.87;61.10
19210;BME280;9738;51.654;14.238;2022-09-06T09:29:02;100959.78;;;20.97;62.34
19210;BME280;9738;51.654;14.238;2022-09-06T09:31:41;100955.84;;;20.99;62.31
19210;BME280;9738;51.654;14.238;2022-09-06T09:34:13;100959.81;;;21.03;63.08
19210;BME280;9738;51.654;14.238;2022-09-06T09:36:39;100963.78;;;21.08;63.47
19210;BME280;9738;51.654;14.238;2022-09-06T09:39:09;100962.53;;;21.10;62.62
19210;BME280;9738;51.654;14.238;2022-09-06T09:41:37;100960.84;;;21.09;62.22
19210;BME280;9738;51.654;14.238;2022-09-06T09:44:15;100958.56;;;21.06;62.67
19210;BME280;9738;51.654;14.238;2022-09-06T09:46:42;100960.84;;;21.02;63.72
19210;BME280;9738;51.654;14.238;2022-09-06T09:49:13;100962.13;;;21.00;61.71
19210;BME280;9738;51.654;14.238;2022-09-06T09:52:09;100961.44;;;20.91;60.38
19210;BME280;9738;51.654;14.238;2022-09-06T09:54:38;100953.97;;;20.93;63.72
19210;BME280;9738;51.654;14.238;2022-09-06T09:57:09;100947.88;;;20.91;64.73
19210;BME280;9738;51.654;14.238;2022-09-06T09:59:41;100944.13;;;20.92;63.83
19210;BME280;9738;51.654;14.238;2022-09-06T10:02:18;100949.13;;;20.89;62.97
19210;BME280;9738;51.654;14.238;2022-09-06T10:04:48;100947.88;;;20.91;62.09
19210;BME280;9738;51.654;14.238;2022-09-06T10:07:24;100946.44;;;20.95;64.44
19210;BME280;9738;51.654;14.238;2022-09-06T10:09:59;100946.22;;;20.97;64.40
19210;BME280;9738;51.654;14.238;2022-09-06T10:12:31;100945.38;;;20.96;63.34
19210;BME280;9738;51.654;14.238;2022-09-06T10:14:58;100949.16;;;20.95;62.70
19210;BME280;9738;51.654;14.238;2022-09-06T10:19:56;100938.28;;;20.89;62.63
19210;BME280;9738;51.654;14.238;2022-09-06T10:22:30;100939.94;;;20.90;64.25
19210;BME280;9738;51.654;14.238;2022-09-06T10:25:20;100932.63;;;20.90;66.69
19210;BME280;9738;51.654;14.238;2022-09-06T10:28:15;100937.66;;;20.93;65.05
19210;BME280;9738;51.654;14.238;2022-09-06T10:31:11;100929.91;;;20.90;62.38
19210;BME280;9738;51.654;14.238;2022-09-06T10:37:04;100925.31;;;20.97;64.58
19210;BME280;9738;51.654;14.238;2022-09-06T10:45:25;100912.41;;;21.26;65.44
19210;BME280;9738;51.654;14.238;2022-09-06T10:48:07;100908.03;;;21.45;63.52
19210;BME280;9738;51.654;14.238;2022-09-06T10:50:40;100907.97;;;21.65;64.02
19210;BME280;9738;51.654;14.238;2022-09-06T10:53:12;100912.53;;;21.84;62.90
19210;BME280;9738;51.654;14.238;2022-09-06T10:55:41;100916.22;;;22.09;63.08
19210;BME280;9738;51.654;14.238;2022-09-06T10:58:10;100912.16;;;22.32;62.30
19210;BME280;9738;51.654;14.238;2022-09-06T11:00:42;100909.28;;;22.58;63.82
19210;BME280;9738;51.654;14.238;2022-09-06T11:03:29;100904.09;;;22.82;62.55
19210;BME280;9738;51.654;14.238;2022-09-06T11:06:16;100893.47;;;23.05;57.85
19210;BME280;9738;51.654;14.238;2022-09-06T11:08:49;100893.38;;;23.18;57.55
19210;BME280;9738;51.654;14.238;2022-09-06T11:11:29;100894.53;;;23.29;60.30
19210;BME280;9738;51.654;14.238;2022-09-06T11:14:04;100893.19;;;23.38;57.75
19210;BME280;9738;51.654;14.238;2022-09-06T11:16:35;100889.31;;;23.46;57.30
19210;BME280;9738;51.654;14.238;2022-09-06T11:19:14;100881.06;;;23.53;57.16
19210;BME280;9738;51.654;14.238;2022-09-06T11:22:05;100874.94;;;23.57;56.91
19210;BME280;9738;51.654;14.238;2022-09-06T11:25:20;100868.53;;;23.70;55.96
19210;BME280;9738;51.654;14.238;2022-09-06T11:27:52;100869.22;;;23.84;53.89
19210;BME280;9738;51.654;14.238;2022-09-06T11:30:20;100857.41;;;23.90;55.72
19210;BME280;9738;51.654;14.238;2022-09-06T11:33:22;100857.31;;;23.96;54.24
19210;BME280;9738;51.654;14.238;2022-09-06T11:35:49;100849.44;;;24.07;55.27
19210;BME280;9738;51.654;14.238;2022-09-06T11:40:44;100853.47;;;24.34;55.34
19210;BME280;9738;51.654;14.238;2022-09-06T11:43:20;100839.38;;;24.49;53.43
19210;BME280;9738;51.654;14.238;2022-09-06T11:46:02;100846.53;;;24.62;53.45
19210;BME280;9738;51.654;14.238;2022-09-06T11:48:31;100839.09;;;24.69;51.74
19210;BME280;9738;51.654;14.238;2022-09-06T11:51:04;100840.53;;;24.71;51.18
19210;BME280;9738;51.654;14.238;2022-09-06T11:53:34;100835.28;;;24.70;53.71
19210;BME280;9738;51.654;14.238;2022-09-06T11:56:38;100837.13;;;24.88;54.01
19210;BME280;9738;51.654;14.238;2022-09-06T12:04:22;100832.75;;;25.10;51.90
19210;BME280;9738;51.654;14.238;2022-09-06T12:07:09;100840.69;;;25.35;52.55
19210;BME280;9738;51.654;14.238;2022-09-06T12:09:41;100832.22;;;25.60;51.00
19210;BME280;9738;51.654;14.238;2022-09-06T12:12:07;100831.84;;;25.68;48.07
19210;BME280;9738;51.654;14.238;2022-09-06T12:14:39;100828.03;;;25.69;48.99
19210;BME280;9738;51.654;14.238;2022-09-06T12:20:00;100830.44;;;25.66;49.99
19210;BME280;9738;51.654;14.238;2022-09-06T12:25:06;100824.88;;;25.49;49.39
19210;BME280;9738;51.654;14.238;2022-09-06T12:27:54;100825.34;;;25.46;52.40
19210;BME280;9738;51.654;14.238;2022-09-06T12:30:40;100831.66;;;25.34;49.75
19210;BME280;9738;51.654;14.238;2022-09-06T12:33:15;100821.44;;;25.18;49.18
19210;BME280;9738;51.654;14.238;2022-09-06T12:35:42;100820.03;;;25.16;51.07
19210;BME280;9738;51.654;14.238;2022-09-06T12:38:13;100820.16;;;25.09;51.46
19210;BME280;9738;51.654;14.238;2022-09-06T12:40:46;100812.75;;;24.98;51.12
19210;BME280;9738;51.654;14.238;2022-09-06T12:43:15;100813.69;;;24.92;50.16
19210;BME280;9738;51.654;14.238;2022-09-06T12:45:42;100808.09;;;24.87;51.21
19210;BME280;9738;51.654;14.238;2022-09-06T12:48:11;100812.38;;;24.83;50.67
19210;BME280;9738;51.654;14.238;2022-09-06T12:50:38;100807.75;;;24.71;52.00
19210;BME280;9738;51.654;14.238;2022-09-06T12:53:20;100807.59;;;24.66;50.64
19210;BME280;9738;51.654;14.238;2022-09-06T12:56:03;100812.25;;;24.66;51.30
19210;BME280;9738;51.654;14.238;2022-09-06T12:58:29;100810.94;;;24.68;51.94
19210;BME280;9738;51.654;14.238;2022-09-06T13:01:02;100801.69;;;24.69;51.70
19210;BME280;9738;51.654;14.238;2022-09-06T13:03:33;100799.66;;;24.65;49.78
19210;BME280;9738;51.654;14.238;2022-09-06T13:06:04;100798.25;;;24.62;51.10
19210;BME280;9738;51.654;14.238;2022-09-06T13:08:41;100787.78;;;24.59;51.37
19210;BME280;9738;51.654;14.238;2022-09-06T13:11:13;100790.50;;;24.59;51.20
19210;BME280;9738;51.654;14.238;2022-09-06T13:13:50;100788.84;;;24.58;51.83
19210;BME280;9738;51.654;14.238;2022-09-06T13:16:19;100785.72;;;24.54;50.89
19210;BME280;9738;51.654;14.238;2022-09-06T13:18:47;100783.72;;;24.50;52.67
19210;BME280;9738;51.654;14.238;2022-09-06T13:21:23;100777.75;;;24.41;51.40
19210;BME280;9738;51.654;14.238;2022-09-06T13:23:50;100775.13;;;24.35;53.35
19210;BME280;9738;51.654;14.238;2022-09-06T13:26:38;100772.84;;;24.32;53.51
19210;BME280;9738;51.654;14.238;2022-09-06T13:31:45;100774.81;;;24.13;50.86
19210;BME280;9738;51.654;14.238;2022-09-06T13:34:24;100770.47;;;23.93;49.49
19210;BME280;9738;51.654;14.238;2022-09-06T13:36:52;100778.97;;;23.85;52.13
19210;BME280;9738;51.654;14.238;2022-09-06T13:39:30;100782.16;;;23.82;51.24
19210;BME280;9738;51.654;14.238;2022-09-06T13:42:08;100780.13;;;23.78;51.33
19210;BME280;9738;51.654;14.238;2022-09-06T13:44:38;100777.88;;;23.75;52.34
19210;BME280;9738;51.654;14.238;2022-09-06T13:47:04;100774.50;;;23.72;52.19
19210;BME280;9738;51.654;14.238;2022-09-06T13:49:31;100778.16;;;23.66;51.33
19210;BME280;9738;51.654;14.238;2022-09-06T13:51:59;100783.50;;;23.61;51.12
19210;BME280;9738;51.654;14.238;2022-09-06T13:54:27;100785.19;;;23.56;51.21
19210;BME280;9738;51.654;14.238;2022-09-06T13:56:53;100783.63;;;23.48;50.43
19210;BME280;9738;51.654;14.238;2022-09-06T13:59:20;100785.13;;;23.44;50.41